Terminal Aerodrome Forecast
Issued by NWS

Home | Current Version | Previous Version | Text Only | Print | Product List | Glossary On
Versions: 1 2 3 4 5 6 7 8 9 10 11 12 13 14 15 16 17 18 19 20 21 22 23 24
000
FTUS44 KLIX 200800 AAA
TAFHUM
TAF AMD
KHUM 200821Z 2008/2106 00000KT 4SM BR SCT007
      TEMPO 2008/2012 1SM BR VV007
     FM201400 05005KT P6SM SKC=

USA.gov is the U.S. government's official web portal to all federal, state and local government web resources and services.